sensor_id;sensor_type;location;lat;lon;timestamp;pressure;altitude;pressure_sealevel;temperature;humidity
38038;BME280;23843;51.320;12.340;2022-10-22T04:31:10;99963.22;;;14.68;94.53
38038;BME280;23843;51.320;12.340;2022-10-22T04:33:36;99963.34;;;14.66;94.79
38038;BME280;23843;51.320;12.340;2022-10-22T04:36:05;99961.63;;;14.65;94.86
38038;BME280;23843;51.320;12.340;2022-10-22T04:38:31;99965.28;;;14.64;95.10
38038;BME280;23843;51.320;12.340;2022-10-22T04:40:56;99964.44;;;14.64;95.02
38038;BME280;23843;51.320;12.340;2022-10-22T04:43:21;99969.78;;;14.64;94.77
38038;BME280;23843;51.320;12.340;2022-10-22T04:45:47;99968.06;;;14.63;94.71
38038;BME280;23843;51.320;12.340;2022-10-22T04:48:13;99967.09;;;14.64;94.67
38038;BME280;23843;51.320;12.340;2022-10-22T04:50:39;99962.63;;;14.64;94.63
38038;BME280;23843;51.320;12.340;2022-10-22T04:53:04;99959.09;;;14.64;94.23
38038;BME280;23843;51.320;12.340;2022-10-22T04:55:30;99954.63;;;14.64;94.26
38038;BME280;23843;51.320;12.340;2022-10-22T04:57:55;99951.94;;;14.64;94.86
38038;BME280;23843;51.320;12.340;2022-10-22T05:00:20;99948.44;;;14.64;94.96
38038;BME280;23843;51.320;12.340;2022-10-22T05:02:48;99936.94;;;14.63;95.03
38038;BME280;23843;51.320;12.340;2022-10-22T05:05:15;99937.78;;;14.64;95.46
38038;BME280;23843;51.320;12.340;2022-10-22T05:07:40;99943.09;;;14.64;95.20
38038;BME280;23843;51.320;12.340;2022-10-22T05:10:07;99952.78;;;14.65;94.95
38038;BME280;23843;51.320;12.340;2022-10-22T05:12:33;99955.47;;;14.65;95.23
38038;BME280;23843;51.320;12.340;2022-10-22T05:14:59;99957.19;;;14.66;94.96
38038;BME280;23843;51.320;12.340;2022-10-22T05:17:24;99956.31;;;14.65;94.85
38038;BME280;23843;51.320;12.340;2022-10-22T05:19:50;99961.53;;;14.67;94.90
38038;BME280;23843;51.320;12.340;2022-10-22T05:22:16;99965.88;;;14.68;94.95
38038;BME280;23843;51.320;12.340;2022-10-22T05:24:42;99969.53;;;14.67;96.05
38038;BME280;23843;51.320;12.340;2022-10-22T05:27:07;99974.84;;;14.67;95.77
38038;BME280;23843;51.320;12.340;2022-10-22T05:29:32;99979.22;;;14.68;95.49
38038;BME280;23843;51.320;12.340;2022-10-22T05:31:58;99980.09;;;14.68;95.29
38038;BME280;23843;51.320;12.340;2022-10-22T05:34:23;99987.00;;;14.71;95.09
38038;BME280;23843;51.320;12.340;2022-10-22T05:36:49;99983.47;;;14.70;95.05
38038;BME280;23843;51.320;12.340;2022-10-22T05:39:15;99983.34;;;14.72;94.98
38038;BME280;23843;51.320;12.340;2022-10-22T05:41:41;99992.09;;;14.74;94.99
38038;BME280;23843;51.320;12.340;2022-10-22T05:44:06;100002.50;;;14.77;95.24
38038;BME280;23843;51.320;12.340;2022-10-22T05:46:34;100000.56;;;14.79;96.11
38038;BME280;23843;51.320;12.340;2022-10-22T05:49:01;99999.72;;;14.79;95.57
38038;BME280;23843;51.320;12.340;2022-10-22T05:51:28;100002.03;;;14.83;95.47
38038;BME280;23843;51.320;12.340;2022-10-22T05:53:55;100001.06;;;14.84;95.38
38038;BME280;23843;51.320;12.340;2022-10-22T05:56:23;99995.47;;;14.87;95.80
38038;BME280;23843;51.320;12.340;2022-10-22T05:58:48;99992.81;;;14.87;95.76
38038;BME280;23843;51.320;12.340;2022-10-22T06:01:16;99996.22;;;14.89;95.19
38038;BME280;23843;51.320;12.340;2022-10-22T06:03:42;100000.59;;;14.90;95.14
38038;BME280;23843;51.320;12.340;2022-10-22T06:06:17;100007.63;;;14.91;95.69
38038;BME280;23843;51.320;12.340;2022-10-22T06:08:43;100022.66;;;14.92;95.14
38038;BME280;23843;51.320;12.340;2022-10-22T06:11:09;100023.38;;;14.94;95.16
38038;BME280;23843;51.320;12.340;2022-10-22T06:13:36;100026.78;;;14.96;95.30
38038;BME280;23843;51.320;12.340;2022-10-22T06:16:01;100029.44;;;14.96;96.80
38038;BME280;23843;51.320;12.340;2022-10-22T06:18:26;100037.44;;;14.96;97.11
38038;BME280;23843;51.320;12.340;2022-10-22T06:20:52;100047.16;;;14.97;96.94
38038;BME280;23843;51.320;12.340;2022-10-22T06:23:17;100049.69;;;14.99;97.03
38038;BME280;23843;51.320;12.340;2022-10-22T06:25:43;100048.75;;;15.00;96.90
38038;BME280;23843;51.320;12.340;2022-10-22T06:28:08;100050.44;;;15.01;97.42
38038;BME280;23843;51.320;12.340;2022-10-22T06:30:36;100053.94;;;15.02;97.09
38038;BME280;23843;51.320;12.340;2022-10-22T06:33:01;100058.31;;;15.03;97.03
38038;BME280;23843;51.320;12.340;2022-10-22T06:35:26;100061.84;;;15.03;97.31
38038;BME280;23843;51.320;12.340;2022-10-22T06:37:52;100069.72;;;15.05;96.89
38038;BME280;23843;51.320;12.340;2022-10-22T06:40:17;100060.75;;;15.06;97.14
38038;BME280;23843;51.320;12.340;2022-10-22T06:42:43;100071.16;;;15.09;96.73
38038;BME280;23843;51.320;12.340;2022-10-22T06:45:09;100077.25;;;15.11;96.56
38038;BME280;23843;51.320;12.340;2022-10-22T06:47:36;100074.34;;;15.14;96.24
38038;BME280;23843;51.320;12.340;2022-10-22T06:50:01;100076.78;;;15.17;96.15
38038;BME280;23843;51.320;12.340;2022-10-22T06:52:27;100079.22;;;15.20;96.00
38038;BME280;23843;51.320;12.340;2022-10-22T06:54:52;100076.28;;;15.23;96.07
38038;BME280;23843;51.320;12.340;2022-10-22T06:57:17;100083.22;;;15.26;96.37
38038;BME280;23843;51.320;12.340;2022-10-22T06:59:43;100087.34;;;15.30;96.10
38038;BME280;23843;51.320;12.340;2022-10-22T07:02:08;100095.94;;;15.33;96.37
38038;BME280;23843;51.320;12.340;2022-10-22T07:04:35;100089.41;;;15.37;95.99
38038;BME280;23843;51.320;12.340;2022-10-22T07:07:00;100096.31;;;15.40;96.01
38038;BME280;23843;51.320;12.340;2022-10-22T07:09:26;100099.63;;;15.44;96.15
38038;BME280;23843;51.320;12.340;2022-10-22T07:11:51;100104.72;;;15.47;96.30
38038;BME280;23843;51.320;12.340;2022-10-22T07:14:17;100111.50;;;15.51;95.79
38038;BME280;23843;51.320;12.340;2022-10-22T07:16:42;100115.75;;;15.53;95.71
38038;BME280;23843;51.320;12.340;2022-10-22T07:19:08;100115.63;;;15.55;95.72
38038;BME280;23843;51.320;12.340;2022-10-22T07:21:35;100117.94;;;15.59;95.76
38038;BME280;23843;51.320;12.340;2022-10-22T07:24:00;100126.56;;;15.63;95.69
38038;BME280;23843;51.320;12.340;2022-10-22T07:26:26;100127.06;;;15.68;95.58
38038;BME280;23843;51.320;12.340;2022-10-22T07:28:52;100131.41;;;15.69;96.21
38038;BME280;23843;51.320;12.340;2022-10-22T07:31:18;100140.66;;;15.76;95.95
38038;BME280;23843;51.320;12.340;2022-10-22T07:33:44;100135.06;;;15.79;96.47
38038;BME280;23843;51.320;12.340;2022-10-22T07:36:11;100135.56;;;15.84;96.24
38038;BME280;23843;51.320;12.340;2022-10-22T07:38:38;100138.00;;;15.88;96.28
38038;BME280;23843;51.320;12.340;2022-10-22T07:41:04;100141.38;;;15.90;96.44
38038;BME280;23843;51.320;12.340;2022-10-22T07:43:29;100144.56;;;15.95;96.33
38038;BME280;23843;51.320;12.340;2022-10-22T07:45:55;100146.97;;;15.98;96.83
38038;BME280;23843;51.320;12.340;2022-10-22T07:48:20;100148.56;;;16.00;96.87
38038;BME280;23843;51.320;12.340;2022-10-22T07:50:48;100150.03;;;16.04;96.37
38038;BME280;23843;51.320;12.340;2022-10-22T07:53:13;100153.66;;;16.03;97.33
38038;BME280;23843;51.320;12.340;2022-10-22T07:55:40;100154.38;;;16.05;97.53
38038;BME280;23843;51.320;12.340;2022-10-22T07:58:05;100157.91;;;16.06;97.30
38038;BME280;23843;51.320;12.340;2022-10-22T08:00:31;100155.94;;;16.08;96.88
38038;BME280;23843;51.320;12.340;2022-10-22T08:02:56;100153.28;;;16.08;96.92
38038;BME280;23843;51.320;12.340;2022-10-22T08:05:21;100159.63;;;16.07;96.29
38038;BME280;23843;51.320;12.340;2022-10-22T08:07:47;100161.66;;;16.03;97.28
38038;BME280;23843;51.320;12.340;2022-10-22T08:10:12;100160.94;;;16.01;97.06
38038;BME280;23843;51.320;12.340;2022-10-22T08:12:39;100154.75;;;16.01;96.49
38038;BME280;23843;51.320;12.340;2022-10-22T08:15:06;100160.94;;;16.01;96.26
38038;BME280;23843;51.320;12.340;2022-10-22T08:17:32;100167.13;;;16.02;96.49
38038;BME280;23843;51.320;12.340;2022-10-22T08:19:57;100159.34;;;15.99;96.36
38038;BME280;23843;51.320;12.340;2022-10-22T08:22:23;100165.44;;;16.01;96.29
38038;BME280;23843;51.320;12.340;2022-10-22T08:24:48;100161.19;;;15.98;96.65
38038;BME280;23843;51.320;12.340;2022-10-22T08:27:13;100164.84;;;15.97;96.78
38038;BME280;23843;51.320;12.340;2022-10-22T08:29:40;100167.38;;;15.99;96.22
38038;BME280;23843;51.320;12.340;2022-10-22T08:32:06;100177.31;;;15.97;96.85
38038;BME280;23843;51.320;12.340;2022-10-22T08:34:31;100176.38;;;15.98;96.62
38038;BME280;23843;51.320;12.340;2022-10-22T08:36:56;100175.28;;;16.00;96.76
38038;BME280;23843;51.320;12.340;2022-10-22T08:39:22;100179.78;;;16.00;96.71
38038;BME280;23843;51.320;12.340;2022-10-22T08:41:55;100176.13;;;16.01;97.01
38038;BME280;23843;51.320;12.340;2022-10-22T08:44:46;100174.19;;;16.03;96.51
38038;BME280;23843;51.320;12.340;2022-10-22T08:47:25;100183.16;;;16.02;96.23
38038;BME280;23843;51.320;12.340;2022-10-22T08:49:58;100193.84;;;16.02;96.07
38038;BME280;23843;51.320;12.340;2022-10-22T08:52:24;100196.41;;;16.03;96.10
38038;BME280;23843;51.320;12.340;2022-10-22T08:54:52;100192.03;;;16.02;95.68
38038;BME280;23843;51.320;12.340;2022-10-22T08:57:38;100197.25;;;16.04;95.82
38038;BME280;23843;51.320;12.340;2022-10-22T09:00:12;100202.38;;;16.07;95.35
38038;BME280;23843;51.320;12.340;2022-10-22T09:02:47;100196.41;;;16.03;95.18
38038;BME280;23843;51.320;12.340;2022-10-22T09:05:26;100206.25;;;16.03;95.69
38038;BME280;23843;51.320;12.340;2022-10-22T09:07:54;100203.31;;;16.06;95.48
38038;BME280;23843;51.320;12.340;2022-10-22T09:10:23;100200.28;;;16.11;95.51
38038;BME280;23843;51.320;12.340;2022-10-22T09:12:50;100200.66;;;16.17;95.32
38038;BME280;23843;51.320;12.340;2022-10-22T09:15:18;100205.97;;;16.29;95.04
38038;BME280;23843;51.320;12.340;2022-10-22T09:17:55;100213.72;;;16.43;94.41
38038;BME280;23843;51.320;12.340;2022-10-22T09:20:27;100209.59;;;16.50;94.36
38038;BME280;23843;51.320;12.340;2022-10-22T09:23:04;100211.53;;;16.59;94.12
38038;BME280;23843;51.320;12.340;2022-10-22T09:25:37;100214.03;;;16.72;93.41
38038;BME280;23843;51.320;12.340;2022-10-22T09:28:03;100218.41;;;16.84;92.81
38038;BME280;23843;51.320;12.340;2022-10-22T09:30:34;100218.00;;;17.00;92.40
38038;BME280;23843;51.320;12.340;2022-10-22T09:33:10;100213.03;;;17.17;90.94
38038;BME280;23843;51.320;12.340;2022-10-22T09:35:44;100214.56;;;17.30;89.77
38038;BME280;23843;51.320;12.340;2022-10-22T09:38:12;100214.25;;;17.45;89.52
38038;BME280;23843;51.320;12.340;2022-10-22T09:40:42;100212.69;;;17.63;89.07
38038;BME280;23843;51.320;12.340;2022-10-22T09:43:09;100207.81;;;17.78;86.32
38038;BME280;23843;51.320;12.340;2022-10-22T09:45:37;100210.44;;;17.89;86.99
38038;BME280;23843;51.320;12.340;2022-10-22T09:48:10;100220.72;;;17.84;85.02
38038;BME280;23843;51.320;12.340;2022-10-22T09:50:40;100215.63;;;17.81;85.08
38038;BME280;23843;51.320;12.340;2022-10-22T09:53:12;100214.88;;;17.79;85.42
38038;BME280;23843;51.320;12.340;2022-10-22T09:55:38;100215.34;;;17.84;86.11
38038;BME280;23843;51.320;12.340;2022-10-22T09:58:09;100215.50;;;17.83;85.42
38038;BME280;23843;51.320;12.340;2022-10-22T10:00:38;100218.88;;;17.85;84.22
38038;BME280;23843;51.320;12.340;2022-10-22T10:03:04;100217.50;;;17.90;84.54
38038;BME280;23843;51.320;12.340;2022-10-22T10:05:32;100221.34;;;17.98;84.80
38038;BME280;23843;51.320;12.340;2022-10-22T10:07:58;100230.81;;;18.02;84.82
38038;BME280;23843;51.320;12.340;2022-10-22T10:10:33;100223.38;;;18.05;83.85
38038;BME280;23843;51.320;12.340;2022-10-22T10:13:05;100225.31;;;18.03;83.42
38038;BME280;23843;51.320;12.340;2022-10-22T10:15:39;100228.56;;;18.07;82.58
38038;BME280;23843;51.320;12.340;2022-10-22T10:18:11;100217.59;;;18.10;82.69
38038;BME280;23843;51.320;12.340;2022-10-22T10:20:45;100220.56;;;18.16;83.39
38038;BME280;23843;51.320;12.340;2022-10-22T10:23:18;100218.34;;;18.22;82.85
38038;BME280;23843;51.320;12.340;2022-10-22T10:25:54;100219.91;;;18.24;82.52
38038;BME280;23843;51.320;12.340;2022-10-22T10:28:37;100220.34;;;18.29;80.89
38038;BME280;23843;51.320;12.340;2022-10-22T10:31:16;100225.16;;;18.35;81.20
38038;BME280;23843;51.320;12.340;2022-10-22T10:33:53;100217.44;;;18.42;82.61
38038;BME280;23843;51.320;12.340;2022-10-22T10:36:30;100224.91;;;18.48;81.64
38038;BME280;23843;51.320;12.340;2022-10-22T10:39:02;100220.00;;;18.53;80.76
38038;BME280;23843;51.320;12.340;2022-10-22T10:41:39;100218.63;;;18.69;81.70
38038;BME280;23843;51.320;12.340;2022-10-22T10:44:32;100216.34;;;18.64;80.12
38038;BME280;23843;51.320;12.340;2022-10-22T10:47:10;100226.38;;;18.62;80.06
38038;BME280;23843;51.320;12.340;2022-10-22T10:49:37;100231.00;;;18.60;80.05
38038;BME280;23843;51.320;12.340;2022-10-22T10:52:11;100216.63;;;18.61;80.64
38038;BME280;23843;51.320;12.340;2022-10-22T10:54:43;100220.72;;;18.65;80.27
38038;BME280;23843;51.320;12.340;2022-10-22T10:57:18;100228.50;;;18.68;80.92
38038;BME280;23843;51.320;12.340;2022-10-22T10:59:56;100232.47;;;18.74;81.01
38038;BME280;23843;51.320;12.340;2022-10-22T11:05:25;100224.34;;;18.85;79.83
38038;BME280;23843;51.320;12.340;2022-10-22T11:07:56;100230.97;;;18.91;80.26
38038;BME280;23843;51.320;12.340;2022-10-22T11:10:28;100224.34;;;18.95;79.89
38038;BME280;23843;51.320;12.340;2022-10-22T11:12:56;100225.03;;;18.97;80.00
38038;BME280;23843;51.320;12.340;2022-10-22T11:15:30;100225.72;;;18.99;78.28
38038;BME280;23843;51.320;12.340;2022-10-22T11:18:02;100230.84;;;19.02;77.61
38038;BME280;23843;51.320;12.340;2022-10-22T11:20:40;100230.13;;;19.00;76.43
38038;BME280;23843;51.320;12.340;2022-10-22T11:23:10;100235.06;;;18.95;74.67
38038;BME280;23843;51.320;12.340;2022-10-22T11:25:41;100231.69;;;18.93;76.11
38038;BME280;23843;51.320;12.340;2022-10-22T11:28:11;100233.66;;;18.91;75.16
38038;BME280;23843;51.320;12.340;2022-10-22T11:30:39;100229.25;;;18.90;74.83
38038;BME280;23843;51.320;12.340;2022-10-22T11:33:13;100233.94;;;18.88;75.03
38038;BME280;23843;51.320;12.340;2022-10-22T11:35:41;100239.31;;;18.88;75.08
38038;BME280;23843;51.320;12.340;2022-10-22T11:38:12;100235.63;;;18.89;75.78
38038;BME280;23843;51.320;12.340;2022-10-22T11:40:44;100235.63;;;18.89;76.30
38038;BME280;23843;51.320;12.340;2022-10-22T11:43:10;100232.09;;;18.88;75.55
38038;BME280;23843;51.320;12.340;2022-10-22T11:45:56;100237.47;;;18.88;75.41
38038;BME280;23843;51.320;12.340;2022-10-22T11:48:26;100237.59;;;18.87;75.42
38038;BME280;23843;51.320;12.340;2022-10-22T11:50:54;100240.44;;;18.85;75.53
38038;BME280;23843;51.320;12.340;2022-10-22T11:53:29;100236.19;;;18.83;76.04
38038;BME280;23843;51.320;12.340;2022-10-22T11:55:56;100243.53;;;18.80;75.50
38038;BME280;23843;51.320;12.340;2022-10-22T11:58:38;100241.81;;;18.79;75.01
38038;BME280;23843;51.320;12.340;2022-10-22T12:01:20;100247.47;;;18.76;75.82
38038;BME280;23843;51.320;12.340;2022-10-22T12:03:50;100255.53;;;18.76;75.56
38038;BME280;23843;51.320;12.340;2022-10-22T12:06:19;100245.34;;;18.80;76.25
38038;BME280;23843;51.320;12.340;2022-10-22T12:08:46;100239.56;;;18.85;75.66
38038;BME280;23843;51.320;12.340;2022-10-22T12:11:19;100243.38;;;18.92;74.97
38038;BME280;23843;51.320;12.340;2022-10-22T12:14:02;100240.72;;;19.01;75.53
38038;BME280;23843;51.320;12.340;2022-10-22T12:16:36;100240.47;;;19.14;75.25
38038;BME280;23843;51.320;12.340;2022-10-22T12:19:05;100246.25;;;19.19;75.00
38038;BME280;23843;51.320;12.340;2022-10-22T12:21:32;100243.41;;;19.21;73.96
38038;BME280;23843;51.320;12.340;2022-10-22T12:23:57;100242.44;;;19.22;73.55
38038;BME280;23843;51.320;12.340;2022-10-22T12:26:24;100238.75;;;19.23;73.40
38038;BME280;23843;51.320;12.340;2022-10-22T12:28:55;100247.94;;;19.20;72.55
38038;BME280;23843;51.320;12.340;2022-10-22T12:31:21;100246.25;;;19.19;74.25
38038;BME280;23843;51.320;12.340;2022-10-22T12:33:46;100250.19;;;19.15;72.22
38038;BME280;23843;51.320;12.340;2022-10-22T12:36:17;100247.81;;;19.12;73.99
38038;BME280;23843;51.320;12.340;2022-10-22T12:38:45;100255.16;;;19.10;73.59
38038;BME280;23843;51.320;12.340;2022-10-22T12:41:10;100253.44;;;19.09;74.25
38038;BME280;23843;51.320;12.340;2022-10-22T12:43:36;100249.19;;;19.07;74.75
38038;BME280;23843;51.320;12.340;2022-10-22T12:46:01;100250.31;;;19.04;74.64
38038;BME280;23843;51.320;12.340;2022-10-22T12:48:29;100248.94;;;19.00;74.22
38038;BME280;23843;51.320;12.340;2022-10-22T12:50:57;100250.47;;;18.93;73.68
38038;BME280;23843;51.320;12.340;2022-10-22T12:53:33;100245.50;;;18.88;74.42
38038;BME280;23843;51.320;12.340;2022-10-22T12:56:01;100247.50;;;18.86;74.41
38038;BME280;23843;51.320;12.340;2022-10-22T12:58:31;100249.47;;;18.84;74.53
38038;BME280;23843;51.320;12.340;2022-10-22T13:00:58;100246.94;;;18.83;75.08
38038;BME280;23843;51.320;12.340;2022-10-22T13:03:27;100245.22;;;18.81;75.31
38038;BME280;23843;51.320;12.340;2022-10-22T13:05:53;100244.66;;;18.78;74.65
38038;BME280;23843;51.320;12.340;2022-10-22T13:08:22;100244.66;;;18.78;73.99
38038;BME280;23843;51.320;12.340;2022-10-22T13:10:50;100245.75;;;18.75;74.57
38038;BME280;23843;51.320;12.340;2022-10-22T13:13:30;100237.00;;;18.73;75.41
38038;BME280;23843;51.320;12.340;2022-10-22T13:15:55;100244.31;;;18.71;75.21
38038;BME280;23843;51.320;12.340;2022-10-22T13:18:36;100244.31;;;18.71;75.47
38038;BME280;23843;51.320;12.340;2022-10-22T13:21:01;100251.13;;;18.75;75.76
38038;BME280;23843;51.320;12.340;2022-10-22T13:23:28;100243.94;;;18.76;74.66
38038;BME280;23843;51.320;12.340;2022-10-22T13:25:58;100241.81;;;18.79;74.83
38038;BME280;23843;51.320;12.340;2022-10-22T13:28:24;100248.91;;;18.80;74.56
38038;BME280;23843;51.320;12.340;2022-10-22T13:30:51;100248.19;;;18.78;72.99
38038;BME280;23843;51.320;12.340;2022-10-22T13:33:22;100257.06;;;18.79;72.61
38038;BME280;23843;51.320;12.340;2022-10-22T13:35:48;100252.84;;;18.76;74.24
38038;BME280;23843;51.320;12.340;2022-10-22T13:38:14;100246.72;;;18.74;73.47
38038;BME280;23843;51.320;12.340;2022-10-22T13:40:42;100246.72;;;18.74;73.73
38038;BME280;23843;51.320;12.340;2022-10-22T13:43:08;100243.19;;;18.74;74.34
38038;BME280;23843;51.320;12.340;2022-10-22T13:45:34;100251.25;;;18.74;73.92
38038;BME280;23843;51.320;12.340;2022-10-22T13:47:59;100251.13;;;18.75;74.03
38038;BME280;23843;51.320;12.340;2022-10-22T13:50:25;100250.25;;;18.75;74.59
38038;BME280;23843;51.320;12.340;2022-10-22T13:52:52;100249.56;;;18.73;74.79
38038;BME280;23843;51.320;12.340;2022-10-22T13:55:20;100245.16;;;18.72;73.18
38038;BME280;23843;51.320;12.340;2022-10-22T13:57:45;100247.00;;;18.71;73.91
38038;BME280;23843;51.320;12.340;2022-10-22T14:00:14;100246.16;;;18.71;72.77
38038;BME280;23843;51.320;12.340;2022-10-22T14:02:40;100247.97;;;18.70;73.48
38038;BME280;23843;51.320;12.340;2022-10-22T14:05:06;100247.97;;;18.70;73.96
38038;BME280;23843;51.320;12.340;2022-10-22T14:07:32;100242.59;;;18.70;73.56
38038;BME280;23843;51.320;12.340;2022-10-22T14:09:57;100251.38;;;18.72;74.35
38038;BME280;23843;51.320;12.340;2022-10-22T14:12:22;100235.03;;;18.75;74.02
38038;BME280;23843;51.320;12.340;2022-10-22T14:14:48;100241.25;;;18.76;73.21
38038;BME280;23843;51.320;12.340;2022-10-22T14:17:15;100246.34;;;18.79;74.19
38038;BME280;23843;51.320;12.340;2022-10-22T14:19:42;100248.91;;;18.80;74.59
38038;BME280;23843;51.320;12.340;2022-10-22T14:22:12;100249.75;;;18.81;74.08
38038;BME280;23843;51.320;12.340;2022-10-22T14:24:38;100248.91;;;18.80;74.10
38038;BME280;23843;51.320;12.340;2022-10-22T14:27:03;100255.13;;;18.81;74.82
38038;BME280;23843;51.320;12.340;2022-10-22T14:29:29;100255.13;;;18.81;73.88
38038;BME280;23843;51.320;12.340;2022-10-22T14:31:55;100259.34;;;18.84;74.54
38038;BME280;23843;51.320;12.340;2022-10-22T14:34:22;100263.72;;;18.85;74.50
38038;BME280;23843;51.320;12.340;2022-10-22T14:36:47;100254.69;;;18.86;74.42
38038;BME280;23843;51.320;12.340;2022-10-22T14:39:13;100258.94;;;18.88;74.22
38038;BME280;23843;51.320;12.340;2022-10-22T14:41:38;100258.22;;;18.86;74.79
38038;BME280;23843;51.320;12.340;2022-10-22T14:44:04;100268.53;;;18.81;74.45
38038;BME280;23843;51.320;12.340;2022-10-22T14:46:29;100267.22;;;18.75;73.95
38038;BME280;23843;51.320;12.340;2022-10-22T14:48:54;100273.84;;;18.71;73.98
38038;BME280;23843;51.320;12.340;2022-10-22T14:51:21;100273.13;;;18.69;74.61
38038;BME280;23843;51.320;12.340;2022-10-22T14:53:47;100279.75;;;18.65;74.62
38038;BME280;23843;51.320;12.340;2022-10-22T14:56:14;100281.88;;;18.61;75.09
38038;BME280;23843;51.320;12.340;2022-10-22T14:58:40;100294.84;;;18.56;75.47
38038;BME280;23843;51.320;12.340;2022-10-22T15:01:05;100292.44;;;18.53;75.57
38038;BME280;23843;51.320;12.340;2022-10-22T15:03:31;100288.19;;;18.51;75.33
38038;BME280;23843;51.320;12.340;2022-10-22T15:05:56;100287.59;;;18.47;75.94
38038;BME280;23843;51.320;12.340;2022-10-22T15:08:23;100307.50;;;18.45;76.53
38038;BME280;23843;51.320;12.340;2022-10-22T15:10:56;100297.28;;;18.38;76.22
38038;BME280;23843;51.320;12.340;2022-10-22T15:13:22;100300.25;;;18.35;76.66
38038;BME280;23843;51.320;12.340;2022-10-22T15:15:47;100297.72;;;18.34;75.92
38038;BME280;23843;51.320;12.340;2022-10-22T15:18:12;100297.00;;;18.32;76.00
38038;BME280;23843;51.320;12.340;2022-10-22T15:20:38;100296.56;;;18.27;76.85
38038;BME280;23843;51.320;12.340;2022-10-22T15:23:04;100301.47;;;18.22;76.49
38038;BME280;23843;51.320;12.340;2022-10-22T15:25:30;100299.19;;;18.17;76.63
38038;BME280;23843;51.320;12.340;2022-10-22T15:27:56;100306.53;;;18.15;76.78
38038;BME280;23843;51.320;12.340;2022-10-22T15:30:21;100295.06;;;18.13;76.75
38038;BME280;23843;51.320;12.340;2022-10-22T15:32:47;100304.09;;;18.12;76.98
38038;BME280;23843;51.320;12.340;2022-10-22T15:35:12;100314.34;;;18.07;76.64
38038;BME280;23843;51.320;12.340;2022-10-22T15:37:38;100316.34;;;18.05;76.81
38038;BME280;23843;51.320;12.340;2022-10-22T15:40:04;100313.91;;;18.02;77.05
38038;BME280;23843;51.320;12.340;2022-10-22T15:42:31;100326.63;;;18.00;76.90
38038;BME280;23843;51.320;12.340;2022-10-22T15:44:57;100328.69;;;17.96;76.78
38038;BME280;23843;51.320;12.340;2022-10-22T15:47:23;100327.97;;;17.94;77.17
38038;BME280;23843;51.320;12.340;2022-10-22T15:49:48;100333.72;;;17.89;77.69
38038;BME280;23843;51.320;12.340;2022-10-22T15:52:13;100330.56;;;17.84;78.41
38038;BME280;23843;51.320;12.340;2022-10-22T15:54:39;100332.78;;;17.79;78.32
38038;BME280;23843;51.320;12.340;2022-10-22T15:57:05;100338.41;;;17.76;78.67
38038;BME280;23843;51.320;12.340;2022-10-22T15:59:31;100340.47;;;17.72;78.68
38038;BME280;23843;51.320;12.340;2022-10-22T16:01:57;100336.75;;;17.64;79.89
38038;BME280;23843;51.320;12.340;2022-10-22T16:04:22;100344.44;;;17.57;79.74
38038;BME280;23843;51.320;12.340;2022-10-22T16:06:50;100341.31;;;17.52;79.49
38038;BME280;23843;51.320;12.340;2022-10-22T16:09:17;100344.63;;;17.44;80.11
38038;BME280;23843;51.320;12.340;2022-10-22T16:11:43;100339.91;;;17.37;80.74
38038;BME280;23843;51.320;12.340;2022-10-22T16:14:10;100339.44;;;17.31;80.28
38038;BME280;23843;51.320;12.340;2022-10-22T16:16:41;100336.41;;;17.25;80.67
38038;BME280;23843;51.320;12.340;2022-10-22T16:19:08;100333.50;;;17.17;79.53
38038;BME280;23843;51.320;12.340;2022-10-22T16:21:37;100330.50;;;17.10;80.91
38038;BME280;23843;51.320;12.340;2022-10-22T16:24:03;100331.81;;;17.04;80.74
38038;BME280;23843;51.320;12.340;2022-10-22T16:26:28;100341.09;;;17.00;81.07
38038;BME280;23843;51.320;12.340;2022-10-22T16:28:54;100346.94;;;16.94;82.12
38038;BME280;23843;51.320;12.340;2022-10-22T16:31:19;100353.66;;;16.88;82.17
38038;BME280;23843;51.320;12.340;2022-10-22T16:33:46;100362.16;;;16.82;82.30
38038;BME280;23843;51.320;12.340;2022-10-22T16:36:13;100373.00;;;16.81;82.54
38038;BME280;23843;51.320;12.340;2022-10-22T16:38:39;100369.81;;;16.76;82.61
38038;BME280;23843;51.320;12.340;2022-10-22T16:41:08;100370.03;;;16.73;81.56
38038;BME280;23843;51.320;12.340;2022-10-22T16:43:34;100368.84;;;16.65;81.86
38038;BME280;23843;51.320;12.340;2022-10-22T16:45:59;100375.41;;;16.61;82.18
38038;BME280;23843;51.320;12.340;2022-10-22T16:48:25;100371.00;;;16.60;82.08
38038;BME280;23843;51.320;12.340;2022-10-22T16:50:51;100374.66;;;16.59;82.31
38038;BME280;23843;51.320;12.340;2022-10-22T16:53:17;100384.63;;;16.57;81.55
38038;BME280;23843;51.320;12.340;2022-10-22T16:55:42;100385.72;;;16.55;81.31
38038;BME280;23843;51.320;12.340;2022-10-22T16:58:08;100389.47;;;16.52;81.63
38038;BME280;23843;51.320;12.340;2022-10-22T17:00:33;100393.16;;;16.51;81.05
38038;BME280;23843;51.320;12.340;2022-10-22T17:02:59;100390.81;;;16.46;81.48
38038;BME280;23843;51.320;12.340;2022-10-22T17:05:24;100395.81;;;16.51;81.54
38038;BME280;23843;51.320;12.340;2022-10-22T17:07:51;100397.88;;;16.47;81.94
38038;BME280;23843;51.320;12.340;2022-10-22T17:10:17;100391.91;;;16.44;81.89
38038;BME280;23843;51.320;12.340;2022-10-22T17:12:42;100392.88;;;16.43;81.41
38038;BME280;23843;51.320;12.340;2022-10-22T17:15:08;100400.88;;;16.43;82.22
38038;BME280;23843;51.320;12.340;2022-10-22T17:17:34;100398.47;;;16.40;82.20